createdAt,value
2022-07-27T00:00:32.774Z,18.20
2022-07-27T00:01:06.648Z,16.30
2022-07-27T00:01:40.281Z,16.48
2022-07-27T00:02:18.999Z,16.20
2022-07-27T00:02:52.564Z,17.38
2022-07-27T00:03:27.195Z,17.42
2022-07-27T00:04:01.654Z,16.70
2022-07-27T00:04:34.760Z,17.48
2022-07-27T00:05:09.940Z,16.65
2022-07-27T00:05:46.378Z,18.05
2022-07-27T00:06:19.566Z,17.08
2022-07-27T00:06:54.163Z,16.98
2022-07-27T00:07:27.886Z,17.17
2022-07-27T00:08:02.572Z,17.55
2022-07-27T00:08:36.404Z,16.15
2022-07-27T00:09:10.729Z,16.67
2022-07-27T00:09:44.620Z,17.58
2022-07-27T00:10:18.181Z,16.73
2022-07-27T00:10:53.953Z,17.55
2022-07-27T00:11:27.927Z,16.75
2022-07-27T00:12:01.645Z,16.45
2022-07-27T00:12:35.784Z,16.05
2022-07-27T00:13:10.382Z,16.42
2022-07-27T00:13:45.863Z,16.30
2022-07-27T00:14:19.142Z,16.50
2022-07-27T00:14:53.665Z,16.52
2022-07-27T00:15:27.892Z,17.58
2022-07-27T00:16:01.871Z,17.30
2022-07-27T00:16:37.514Z,17.20
2022-07-27T00:17:11.207Z,17.38
2022-07-27T00:17:44.617Z,16.83
2022-07-27T00:18:20.061Z,16.92
2022-07-27T00:18:53.032Z,16.95
2022-07-27T00:19:27.740Z,16.88
2022-07-27T00:20:01.797Z,16.23
2022-07-27T00:20:35.787Z,16.42
2022-07-27T00:21:11.673Z,17.13
2022-07-27T00:21:46.408Z,17.50
2022-07-27T00:22:19.865Z,16.58
2022-07-27T00:22:53.609Z,16.95
2022-07-27T00:23:29.621Z,17.17
2022-07-27T00:24:03.364Z,16.40
2022-07-27T00:24:37.807Z,16.52
2022-07-27T00:25:12.851Z,16.98
2022-07-27T00:25:50.390Z,17.25
2022-07-27T00:26:24.856Z,17.13
2022-07-27T00:26:58.164Z,16.90
2022-07-27T00:27:32.345Z,16.60
2022-07-27T00:28:07.181Z,16.67
2022-07-27T00:28:42.379Z,17.70
2022-07-27T00:29:15.908Z,16.95
2022-07-27T00:29:49.177Z,17.15
2022-07-27T00:30:23.219Z,39.58
2022-07-27T00:30:57.057Z,36.03
2022-07-27T00:31:30.745Z,25.52
2022-07-27T00:32:12.328Z,21.48
2022-07-27T00:32:47.285Z,18.85
2022-07-27T00:33:20.819Z,18.40
2022-07-27T00:33:55.898Z,17.70
2022-07-27T00:34:29.960Z,18.42
2022-07-27T00:35:03.993Z,17.67
2022-07-27T00:35:37.689Z,17.38
2022-07-27T00:36:15.180Z,17.77
2022-07-27T00:36:49.421Z,17.00
2022-07-27T00:37:23.911Z,17.33
2022-07-27T00:37:58.128Z,18.67
2022-07-27T00:38:34.187Z,17.58
2022-07-27T00:39:08.793Z,17.58
2022-07-27T00:39:44.668Z,17.65
2022-07-27T00:40:18.886Z,18.30
2022-07-27T00:40:52.944Z,18.65
2022-07-27T00:41:27.444Z,17.10
2022-07-27T00:42:01.397Z,17.63
2022-07-27T00:42:36.622Z,19.25
2022-07-27T00:43:09.956Z,16.95
2022-07-27T00:43:58.620Z,17.38
2022-07-27T00:44:33.730Z,16.50
2022-07-27T00:45:08.271Z,16.65
2022-07-27T00:45:43.074Z,16.75
2022-07-27T00:46:16.947Z,17.15
2022-07-27T00:46:50.717Z,17.30
2022-07-27T00:47:24.615Z,17.10
2022-07-27T00:47:59.123Z,17.52
2022-07-27T00:48:33.711Z,17.33
2022-07-27T00:49:08.836Z,17.70
2022-07-27T00:49:43.696Z,17.45
2022-07-27T00:50:16.750Z,18.23
2022-07-27T00:50:50.897Z,18.58
2022-07-27T00:51:26.896Z,17.38
2022-07-27T00:52:00.189Z,18.10
2022-07-27T00:52:35.727Z,16.92
2022-07-27T00:53:09.567Z,19.20
2022-07-27T00:53:43.171Z,18.05
2022-07-27T00:54:17.494Z,17.17
2022-07-27T00:54:51.040Z,16.60
2022-07-27T00:55:26.476Z,17.08
2022-07-27T00:56:02.155Z,16.30
2022-07-27T00:56:36.750Z,17.75
2022-07-27T00:57:13.075Z,17.33
2022-07-27T00:57:57.871Z,17.02
2022-07-27T00:58:34.164Z,17.30
2022-07-27T00:59:12.050Z,17.50
2022-07-27T00:59:47.029Z,17.15
2022-07-27T01:00:24.275Z,17.20
2022-07-27T01:00:58.436Z,16.75
2022-07-27T01:01:33.135Z,17.48
2022-07-27T01:02:11.953Z,18.00
2022-07-27T01:02:46.491Z,17.85
2022-07-27T01:03:23.249Z,17.23
2022-07-27T01:04:04.328Z,17.88
2022-07-27T01:04:39.506Z,17.15
2022-07-27T01:05:13.228Z,17.60
2022-07-27T01:05:47.884Z,16.85
2022-07-27T01:06:26.970Z,16.98
2022-07-27T01:07:03.876Z,17.55
2022-07-27T01:07:37.215Z,17.60
2022-07-27T01:08:14.723Z,16.98
2022-07-27T01:08:49.216Z,17.77
2022-07-27T01:09:41.478Z,17.50
2022-07-27T01:10:17.148Z,16.75
2022-07-27T01:10:53.010Z,18.13
2022-07-27T01:11:27.325Z,17.40
2022-07-27T01:12:02.006Z,18.35
2022-07-27T01:12:36.111Z,18.58
2022-07-27T01:13:12.327Z,17.75
2022-07-27T01:13:48.764Z,17.55
2022-07-27T01:14:22.901Z,17.42
2022-07-27T01:15:02.233Z,17.47
2022-07-27T01:15:40.057Z,17.52
2022-07-27T01:16:15.128Z,17.88
2022-07-27T01:16:48.732Z,18.65
2022-07-27T01:17:23.695Z,18.80
2022-07-27T01:17:57.685Z,18.50
2022-07-27T01:18:34.031Z,17.80
2022-07-27T01:19:08.407Z,18.23
2022-07-27T01:19:42.729Z,18.95
2022-07-27T01:20:16.456Z,19.08
2022-07-27T01:20:51.065Z,18.17
2022-07-27T01:21:25.192Z,18.23
2022-07-27T01:22:10.330Z,18.08
2022-07-27T01:22:43.551Z,18.17
2022-07-27T01:23:18.267Z,18.73
2022-07-27T01:23:52.529Z,18.00
2022-07-27T01:24:25.845Z,18.75
2022-07-27T01:25:00.215Z,19.75
2022-07-27T01:25:35.064Z,18.35
2022-07-27T01:26:08.773Z,18.20
2022-07-27T01:26:42.352Z,18.35
2022-07-27T01:27:16.492Z,17.67
2022-07-27T01:27:50.482Z,18.40
2022-07-27T01:28:24.561Z,18.67
2022-07-27T01:29:00.998Z,17.70
2022-07-27T01:29:35.827Z,18.15
2022-07-27T01:30:27.083Z,18.65
2022-07-27T01:31:01.291Z,18.58
2022-07-27T01:31:34.953Z,18.45
2022-07-27T01:32:08.965Z,19.40
2022-07-27T01:32:44.199Z,19.02
2022-07-27T01:33:18.554Z,17.77
2022-07-27T01:33:53.141Z,18.00
2022-07-27T01:34:26.867Z,19.48
2022-07-27T01:35:03.187Z,19.33
2022-07-27T01:35:36.777Z,20.10
2022-07-27T01:36:11.543Z,19.48
2022-07-27T01:36:46.766Z,18.90
2022-07-27T01:37:21.744Z,18.85
2022-07-27T01:37:55.866Z,18.25
2022-07-27T01:38:31.320Z,18.35
2022-07-27T01:39:05.126Z,17.55
2022-07-27T01:39:38.887Z,18.60
2022-07-27T01:40:15.012Z,18.88
2022-07-27T01:40:48.007Z,18.15
2022-07-27T01:41:21.669Z,19.17
2022-07-27T01:41:56.640Z,18.45
2022-07-27T01:42:30.738Z,18.58
2022-07-27T01:43:06.128Z,19.10
2022-07-27T01:43:41.681Z,19.17
2022-07-27T01:44:15.131Z,19.55
2022-07-27T01:44:48.807Z,18.27
2022-07-27T01:45:23.267Z,18.52
2022-07-27T01:45:56.851Z,18.40
2022-07-27T01:46:30.676Z,18.13
2022-07-27T01:47:14.015Z,18.33
2022-07-27T01:47:49.557Z,18.40
2022-07-27T01:48:22.815Z,18.70
2022-07-27T01:48:58.186Z,18.52
2022-07-27T01:49:33.076Z,18.38
2022-07-27T01:50:08.640Z,18.63
2022-07-27T01:50:45.403Z,18.85
2022-07-27T01:51:21.697Z,19.13
2022-07-27T01:51:55.678Z,18.60
2022-07-27T01:52:32.336Z,19.48
2022-07-27T01:53:05.752Z,18.45
2022-07-27T01:53:45.445Z,19.50
2022-07-27T01:54:18.834Z,19.90
2022-07-27T01:54:53.670Z,18.63
2022-07-27T01:55:37.883Z,19.13
2022-07-27T01:56:13.855Z,19.15
2022-07-27T01:56:48.338Z,18.17
2022-07-27T01:57:22.446Z,19.25
2022-07-27T01:57:56.125Z,18.55
2022-07-27T01:58:32.230Z,19.42
2022-07-27T01:59:05.160Z,18.88
2022-07-27T01:59:39.354Z,18.30
2022-07-27T02:00:15.959Z,19.17
2022-07-27T02:00:50.104Z,18.65
2022-07-27T02:01:25.178Z,19.33
2022-07-27T02:01:59.690Z,18.15
2022-07-27T02:02:33.145Z,19.50
2022-07-27T02:03:07.972Z,19.27
2022-07-27T02:03:42.427Z,20.10
2022-07-27T02:04:19.157Z,19.85
2022-07-27T02:04:53.178Z,20.38
2022-07-27T02:05:28.423Z,20.48
2022-07-27T02:06:03.493Z,19.23
2022-07-27T02:06:37.052Z,19.40
2022-07-27T02:07:11.712Z,20.65
2022-07-27T02:07:46.359Z,20.42
2022-07-27T02:08:20.114Z,20.63
2022-07-27T02:08:56.630Z,19.38
2022-07-27T02:09:31.144Z,20.60
2022-07-27T02:10:05.345Z,20.23
2022-07-27T02:11:00.725Z,20.08
2022-07-27T02:11:52.387Z,20.52
2022-07-27T02:12:38.217Z,19.95
2022-07-27T02:13:21.983Z,20.38
2022-07-27T02:13:56.679Z,18.90
2022-07-27T02:14:29.706Z,20.75
2022-07-27T02:15:06.307Z,20.95
2022-07-27T02:15:43.187Z,19.40
2022-07-27T02:16:20.021Z,20.25
2022-07-27T02:16:55.425Z,20.48
2022-07-27T02:17:30.225Z,20.65
2022-07-27T02:18:03.941Z,20.67
2022-07-27T02:18:58.681Z,20.08
2022-07-27T02:19:32.606Z,20.08
2022-07-27T02:20:07.699Z,19.92
2022-07-27T02:20:42.710Z,20.00
2022-07-27T02:21:16.823Z,19.85
2022-07-27T02:21:51.088Z,19.42
2022-07-27T02:22:25.315Z,20.70
2022-07-27T02:23:00.816Z,19.40
2022-07-27T02:23:35.532Z,20.52
2022-07-27T02:24:11.277Z,19.45
2022-07-27T02:24:45.525Z,37.05
2022-07-27T02:25:20.473Z,21.48
2022-07-27T02:25:56.218Z,20.02
2022-07-27T02:26:30.060Z,20.45
2022-07-27T02:27:04.976Z,21.08
2022-07-27T02:27:40.589Z,20.20
2022-07-27T02:28:15.925Z,20.73
2022-07-27T02:28:50.321Z,21.10
2022-07-27T02:29:24.864Z,20.90
2022-07-27T02:29:58.667Z,20.95
2022-07-27T02:30:33.426Z,20.23
2022-07-27T02:31:08.184Z,19.77
2022-07-27T02:31:41.393Z,20.25
2022-07-27T02:32:15.542Z,19.92
2022-07-27T02:32:50.988Z,20.50
2022-07-27T02:33:25.564Z,21.63
2022-07-27T02:33:59.573Z,21.30
2022-07-27T02:34:33.832Z,44.85
2022-07-27T02:35:19.070Z,65.13
2022-07-27T02:35:53.405Z,136.30
2022-07-27T02:36:29.423Z,76.93
2022-07-27T02:37:03.066Z,42.03
2022-07-27T02:37:36.843Z,22.15
2022-07-27T02:38:12.785Z,21.95
2022-07-27T02:38:46.893Z,22.33
2022-07-27T02:39:21.347Z,22.23
2022-07-27T02:39:55.276Z,22.15
2022-07-27T02:40:29.852Z,21.95
2022-07-27T02:41:04.415Z,22.92
2022-07-27T02:41:37.909Z,22.23
2022-07-27T02:42:12.134Z,21.98
2022-07-27T02:42:49.021Z,23.38
2022-07-27T02:43:22.251Z,23.90
2022-07-27T02:43:56.560Z,25.08
2022-07-27T02:44:31.623Z,23.77
2022-07-27T02:45:08.440Z,23.63
2022-07-27T02:45:42.242Z,24.63
2022-07-27T02:46:16.703Z,24.38
2022-07-27T02:46:50.765Z,24.58
2022-07-27T02:47:24.944Z,25.02
2022-07-27T02:47:59.711Z,23.70
2022-07-27T02:48:34.060Z,25.42
2022-07-27T02:49:08.361Z,24.42
2022-07-27T02:49:42.655Z,23.77
2022-07-27T02:50:17.016Z,22.30
2022-07-27T02:50:50.745Z,21.80
2022-07-27T02:51:25.535Z,23.27
2022-07-27T02:51:59.085Z,23.73
2022-07-27T02:52:32.353Z,122.60
2022-07-27T02:53:06.096Z,157.73
2022-07-27T02:53:40.913Z,119.82
2022-07-27T02:54:17.893Z,50.40
2022-07-27T02:54:52.098Z,169.93
2022-07-27T02:55:25.610Z,30.08
2022-07-27T02:55:59.245Z,26.58
2022-07-27T02:56:33.494Z,26.00
2022-07-27T02:57:07.165Z,25.90
2022-07-27T02:57:42.008Z,24.50
2022-07-27T02:58:16.368Z,26.00
2022-07-27T02:58:50.512Z,25.92
2022-07-27T02:59:25.304Z,26.05
2022-07-27T02:59:59.596Z,25.75
2022-07-27T03:00:34.788Z,27.10
2022-07-27T03:01:08.518Z,25.95
2022-07-27T03:01:43.964Z,26.50
2022-07-27T03:02:17.932Z,26.30
2022-07-27T03:02:51.780Z,25.98
2022-07-27T03:03:34.515Z,25.67
2022-07-27T03:04:11.669Z,27.52
2022-07-27T03:04:44.809Z,26.77
2022-07-27T03:05:20.270Z,25.20
2022-07-27T03:05:55.377Z,28.50
2022-07-27T03:06:30.185Z,27.45
2022-07-27T03:07:04.180Z,26.77
2022-07-27T03:07:38.245Z,25.73
2022-07-27T03:08:12.840Z,27.08
2022-07-27T03:08:48.106Z,29.77
2022-07-27T03:09:20.770Z,27.92
2022-07-27T03:10:08.608Z,27.10
2022-07-27T03:10:48.703Z,26.95
2022-07-27T03:11:25.589Z,26.38
2022-07-27T03:12:00.159Z,25.98
2022-07-27T03:12:34.445Z,27.63
2022-07-27T03:13:08.479Z,27.30
2022-07-27T03:13:41.359Z,26.73
2022-07-27T03:14:14.343Z,26.67
2022-07-27T03:14:50.161Z,27.30
2022-07-27T03:15:24.007Z,27.65
2022-07-27T03:16:00.122Z,29.40
2022-07-27T03:16:35.204Z,28.65
2022-07-27T03:17:08.521Z,29.23
2022-07-27T03:17:43.192Z,28.75
2022-07-27T03:18:22.126Z,27.77
2022-07-27T03:18:55.736Z,27.42
2022-07-27T03:19:30.565Z,27.88
2022-07-27T03:20:08.870Z,27.55
2022-07-27T03:20:45.446Z,27.92
2022-07-27T03:21:18.888Z,27.13
2022-07-27T03:21:57.527Z,28.65
2022-07-27T03:22:33.187Z,26.73
2022-07-27T03:23:07.064Z,26.70
2022-07-27T03:23:41.617Z,26.50
2022-07-27T03:24:20.065Z,27.42
2022-07-27T03:24:54.206Z,26.65
2022-07-27T03:25:29.124Z,27.88
2022-07-27T03:26:02.862Z,26.88
2022-07-27T03:26:36.707Z,28.35
2022-07-27T03:27:11.671Z,28.70
2022-07-27T03:27:45.820Z,27.75
2022-07-27T03:28:19.493Z,28.33
2022-07-27T03:28:53.802Z,26.45
2022-07-27T03:29:29.502Z,26.50
2022-07-27T03:30:02.822Z,26.30
2022-07-27T03:30:38.580Z,26.55
2022-07-27T03:31:13.813Z,26.30
2022-07-27T03:31:48.505Z,26.45
2022-07-27T03:32:23.969Z,26.15
2022-07-27T03:32:57.125Z,26.00
2022-07-27T03:33:32.183Z,25.10
2022-07-27T03:34:06.423Z,25.88
2022-07-27T03:34:41.800Z,24.30
2022-07-27T03:35:15.895Z,24.83
2022-07-27T03:35:50.992Z,25.27
2022-07-27T03:36:26.926Z,25.02
2022-07-27T03:37:01.404Z,25.42
2022-07-27T03:37:36.043Z,25.10
2022-07-27T03:38:11.634Z,24.60
2022-07-27T03:38:46.904Z,23.83
2022-07-27T03:39:23.088Z,26.92
2022-07-27T03:39:57.784Z,25.55
2022-07-27T03:40:33.442Z,24.88
2022-07-27T03:41:07.061Z,25.15
2022-07-27T03:41:41.973Z,24.42
2022-07-27T03:42:15.418Z,23.90
2022-07-27T03:42:50.316Z,26.10
2022-07-27T03:43:23.975Z,26.00
2022-07-27T03:43:58.526Z,24.35
2022-07-27T03:44:32.760Z,24.60
2022-07-27T03:45:11.768Z,24.80
2022-07-27T03:45:46.787Z,24.63
2022-07-27T03:46:22.238Z,23.75
2022-07-27T03:46:59.927Z,24.08
2022-07-27T03:47:33.367Z,24.25
2022-07-27T03:48:08.496Z,24.70
2022-07-27T03:48:43.212Z,24.05
2022-07-27T03:49:18.212Z,23.92
2022-07-27T03:49:53.440Z,24.60
2022-07-27T03:50:27.997Z,24.40
2022-07-27T03:51:03.663Z,23.60
2022-07-27T03:51:37.102Z,23.60
2022-07-27T03:52:15.796Z,25.10
2022-07-27T03:52:51.133Z,25.80
2022-07-27T03:53:25.722Z,24.75
2022-07-27T03:53:59.528Z,24.70
2022-07-27T03:54:35.833Z,25.15
2022-07-27T03:55:11.137Z,24.13
2022-07-27T03:55:45.083Z,25.77
2022-07-27T03:56:21.342Z,25.33
2022-07-27T03:56:55.206Z,26.20
2022-07-27T03:57:29.696Z,25.25
2022-07-27T03:58:03.873Z,24.55
2022-07-27T03:58:38.041Z,26.60
2022-07-27T03:59:12.250Z,25.63
2022-07-27T03:59:49.254Z,25.33
2022-07-27T04:00:24.912Z,24.58
2022-07-27T04:00:58.937Z,24.08
2022-07-27T04:01:34.660Z,25.65
2022-07-27T04:02:09.151Z,24.02
2022-07-27T04:02:45.444Z,24.15
2022-07-27T04:03:19.167Z,24.58
2022-07-27T04:03:52.909Z,23.73
2022-07-27T04:04:27.829Z,23.35
2022-07-27T04:05:02.038Z,23.30
2022-07-27T04:05:38.745Z,23.63
2022-07-27T04:06:11.952Z,24.05
2022-07-27T04:06:45.548Z,24.95
2022-07-27T04:07:21.628Z,23.92
2022-07-27T04:07:55.599Z,23.95
2022-07-27T04:08:30.565Z,25.13
2022-07-27T04:09:07.929Z,24.08
2022-07-27T04:09:43.931Z,22.20
2022-07-27T04:10:21.562Z,25.92
2022-07-27T04:10:57.325Z,25.38
2022-07-27T04:11:31.289Z,24.67
2022-07-27T04:12:06.950Z,25.13
2022-07-27T04:12:40.539Z,24.27
2022-07-27T04:13:15.447Z,24.30
2022-07-27T04:13:52.927Z,23.00
2022-07-27T04:14:27.627Z,22.35
2022-07-27T04:15:03.415Z,24.85
2022-07-27T04:15:38.423Z,25.20
2022-07-27T04:16:11.555Z,25.77
2022-07-27T04:16:48.054Z,24.00
2022-07-27T04:17:54.678Z,24.73
2022-07-27T04:18:17.484Z,25.08
2022-07-27T04:18:54.507Z,23.42
2022-07-27T04:19:30.168Z,24.92
2022-07-27T04:20:04.746Z,25.17
2022-07-27T04:20:39.069Z,23.25
2022-07-27T04:21:13.528Z,23.95
2022-07-27T04:21:46.987Z,23.67
2022-07-27T04:22:22.119Z,22.67
2022-07-27T04:22:56.246Z,22.75
2022-07-27T04:23:36.146Z,20.05
2022-07-27T04:24:11.581Z,19.35
2022-07-27T04:24:47.912Z,19.02
2022-07-27T04:25:21.372Z,19.30
2022-07-27T04:25:55.758Z,20.10
2022-07-27T04:26:30.199Z,19.42
2022-07-27T04:27:03.623Z,19.42
2022-07-27T04:27:38.819Z,19.55
2022-07-27T04:28:13.923Z,19.02
2022-07-27T04:28:47.892Z,20.60
2022-07-27T04:29:24.151Z,20.85
2022-07-27T04:30:00.186Z,20.45
2022-07-27T04:30:33.903Z,20.50
2022-07-27T04:31:08.527Z,20.63
2022-07-27T04:31:42.225Z,21.52
2022-07-27T04:32:16.212Z,21.73
2022-07-27T04:32:51.472Z,22.48
2022-07-27T04:33:26.964Z,22.85
2022-07-27T04:34:01.270Z,23.42
2022-07-27T04:34:37.874Z,21.65
2022-07-27T04:35:12.558Z,20.50
2022-07-27T04:35:46.517Z,19.92
2022-07-27T04:36:21.610Z,21.13
2022-07-27T04:36:56.459Z,21.52
2022-07-27T04:37:30.255Z,21.63
2022-07-27T04:38:04.855Z,20.95
2022-07-27T04:38:38.646Z,21.15
2022-07-27T04:39:12.396Z,22.30
2022-07-27T04:39:49.319Z,20.75
2022-07-27T04:40:23.991Z,21.55
2022-07-27T04:40:58.472Z,20.70
2022-07-27T04:41:33.592Z,20.75
2022-07-27T04:42:09.807Z,21.23
2022-07-27T04:42:49.381Z,22.63
2022-07-27T04:43:25.550Z,22.48
2022-07-27T04:44:05.118Z,21.75
2022-07-27T04:44:39.280Z,22.33
2022-07-27T04:45:13.905Z,25.00
2022-07-27T04:45:48.435Z,21.88
2022-07-27T04:46:24.392Z,21.00
2022-07-27T04:46:58.391Z,21.35
2022-07-27T04:47:32.705Z,22.10
2022-07-27T04:48:12.942Z,21.33
2022-07-27T04:49:23.996Z,19.85
2022-07-27T04:49:59.864Z,20.85
2022-07-27T04:50:34.169Z,22.52
2022-07-27T04:51:08.767Z,21.77
2022-07-27T04:51:45.581Z,20.98
2022-07-27T04:52:19.127Z,21.33
2022-07-27T04:53:02.168Z,21.58
2022-07-27T04:53:37.657Z,21.23
2022-07-27T04:54:28.032Z,19.83
2022-07-27T04:55:02.361Z,20.38
2022-07-27T04:55:37.709Z,20.23
2022-07-27T04:56:12.336Z,21.67
2022-07-27T04:56:47.024Z,22.60
2022-07-27T04:57:21.850Z,22.30
2022-07-27T04:57:57.025Z,20.05
2022-07-27T04:58:31.318Z,20.00
2022-07-27T04:59:07.169Z,19.85
2022-07-27T04:59:41.161Z,20.95
2022-07-27T05:00:20.105Z,23.45
2022-07-27T05:00:56.253Z,20.83
2022-07-27T05:01:35.099Z,20.20
2022-07-27T05:02:09.051Z,21.02
2022-07-27T05:02:44.376Z,22.25
2022-07-27T05:03:19.030Z,20.50
2022-07-27T05:03:53.147Z,20.75
2022-07-27T05:04:28.567Z,20.25
2022-07-27T05:05:05.700Z,20.15
2022-07-27T05:05:49.738Z,19.73
2022-07-27T05:06:23.657Z,19.35
2022-07-27T05:06:57.508Z,21.50
2022-07-27T05:07:34.331Z,22.48
2022-07-27T05:08:07.650Z,23.45
2022-07-27T05:08:42.062Z,20.10
2022-07-27T05:09:22.388Z,19.60
2022-07-27T05:09:56.815Z,20.75
2022-07-27T05:10:33.903Z,19.83
2022-07-27T05:11:08.836Z,18.60
2022-07-27T05:11:50.947Z,18.35
2022-07-27T05:12:25.359Z,19.35
2022-07-27T05:13:00.722Z,19.08
2022-07-27T05:13:36.870Z,19.88
2022-07-27T05:14:10.321Z,18.52
2022-07-27T05:14:46.113Z,19.45
2022-07-27T05:15:19.683Z,20.17
2022-07-27T05:15:56.017Z,19.08
2022-07-27T05:16:31.304Z,19.45
2022-07-27T05:17:08.078Z,18.60
2022-07-27T05:17:43.212Z,20.05
2022-07-27T05:18:17.234Z,19.27
2022-07-27T05:18:51.894Z,21.08
2022-07-27T05:19:40.192Z,20.30
2022-07-27T05:20:15.716Z,19.60
2022-07-27T05:20:51.830Z,19.67
2022-07-27T05:21:25.939Z,19.00
2022-07-27T05:22:00.174Z,19.33
2022-07-27T05:22:39.293Z,19.65
2022-07-27T05:23:14.673Z,19.83
2022-07-27T05:23:48.348Z,20.00
2022-07-27T05:24:22.920Z,18.98
2022-07-27T05:24:58.257Z,19.23
2022-07-27T05:25:35.142Z,18.90
2022-07-27T05:26:09.996Z,19.30
2022-07-27T05:26:45.108Z,20.70
2022-07-27T05:27:19.403Z,21.88
2022-07-27T05:27:54.497Z,21.77
2022-07-27T05:28:29.779Z,20.98
2022-07-27T05:29:04.733Z,21.27
2022-07-27T05:29:38.764Z,20.33
2022-07-27T05:30:14.781Z,21.27
2022-07-27T05:30:50.185Z,20.17
2022-07-27T05:31:23.728Z,20.33
2022-07-27T05:32:00.546Z,20.35
2022-07-27T05:32:36.524Z,21.30
2022-07-27T05:33:12.397Z,21.73
2022-07-27T05:33:49.312Z,21.10
2022-07-27T05:34:25.317Z,21.75
2022-07-27T05:35:00.824Z,20.67
2022-07-27T05:35:36.563Z,21.80
2022-07-27T05:36:11.509Z,20.48
2022-07-27T05:36:46.102Z,22.02
2022-07-27T05:37:20.578Z,20.55
2022-07-27T05:37:55.288Z,22.00
2022-07-27T05:38:30.554Z,21.30
2022-07-27T05:39:04.505Z,21.52
2022-07-27T05:39:39.612Z,22.90
2022-07-27T05:40:15.326Z,22.48
2022-07-27T05:40:51.768Z,21.80
2022-07-27T05:41:29.781Z,20.58
2022-07-27T05:42:05.072Z,20.73
2022-07-27T05:42:38.980Z,21.40
2022-07-27T05:43:13.393Z,21.63
2022-07-27T05:43:48.748Z,21.83
2022-07-27T05:44:23.664Z,21.25
2022-07-27T05:44:58.249Z,21.63
2022-07-27T05:45:33.479Z,21.92
2022-07-27T05:46:07.936Z,22.15
2022-07-27T05:46:42.441Z,22.67
2022-07-27T05:47:17.424Z,21.85
2022-07-27T05:47:50.899Z,22.02
2022-07-27T05:48:25.924Z,22.55
2022-07-27T05:49:00.421Z,21.35
2022-07-27T05:49:35.819Z,20.10
2022-07-27T05:50:11.006Z,20.73
2022-07-27T05:50:46.098Z,20.58
2022-07-27T05:51:20.548Z,20.92
2022-07-27T05:51:54.190Z,20.98
2022-07-27T05:52:28.402Z,20.55
2022-07-27T05:53:01.923Z,19.83
2022-07-27T05:53:37.781Z,20.25
2022-07-27T05:54:12.843Z,19.77
2022-07-27T05:54:48.028Z,19.70
2022-07-27T05:55:23.821Z,19.65
2022-07-27T05:55:59.723Z,20.95
2022-07-27T05:56:36.072Z,19.90
2022-07-27T05:57:10.309Z,20.45
2022-07-27T05:57:48.700Z,19.65
2022-07-27T05:58:24.846Z,21.25
2022-07-27T05:59:06.481Z,19.23
2022-07-27T05:59:41.908Z,19.10
2022-07-27T06:00:17.296Z,19.67
2022-07-27T06:00:51.925Z,18.35
2022-07-27T06:01:27.260Z,19.30
2022-07-27T06:02:04.535Z,20.25
2022-07-27T06:02:39.126Z,18.80
2022-07-27T06:03:14.072Z,19.20
2022-07-27T06:03:47.962Z,18.90
2022-07-27T06:04:21.943Z,17.95
2022-07-27T06:04:56.907Z,17.92
2022-07-27T06:05:30.821Z,18.83
2022-07-27T06:06:22.932Z,19.40
2022-07-27T06:07:11.157Z,19.40
2022-07-27T06:08:00.745Z,18.55
2022-07-27T06:08:36.351Z,20.33
2022-07-27T06:09:11.213Z,25.60
2022-07-27T06:09:45.921Z,23.27
2022-07-27T06:10:20.903Z,20.58
2022-07-27T06:10:54.123Z,20.45
2022-07-27T06:11:32.588Z,19.90
2022-07-27T06:12:07.134Z,19.25
2022-07-27T06:12:43.031Z,19.85
2022-07-27T06:13:17.633Z,19.27
2022-07-27T06:13:53.482Z,19.35
2022-07-27T06:14:28.011Z,20.45
2022-07-27T06:15:03.030Z,20.63
2022-07-27T06:15:39.052Z,33.03
2022-07-27T06:16:13.045Z,21.98
2022-07-27T06:16:47.937Z,20.58
2022-07-27T06:17:23.830Z,22.58
2022-07-27T06:17:57.630Z,22.27
2022-07-27T06:18:31.629Z,20.15
2022-07-27T06:19:07.548Z,21.17
2022-07-27T06:19:40.948Z,20.42
2022-07-27T06:20:15.296Z,20.38
2022-07-27T06:20:50.931Z,21.80
2022-07-27T06:21:26.671Z,21.13
2022-07-27T06:22:00.806Z,20.65
2022-07-27T06:22:35.061Z,20.15
2022-07-27T06:23:09.222Z,19.73
2022-07-27T06:23:44.502Z,19.60
2022-07-27T06:24:19.925Z,18.42
2022-07-27T06:24:53.810Z,18.73
2022-07-27T06:25:34.067Z,19.33
2022-07-27T06:26:10.447Z,18.48
2022-07-27T06:26:47.828Z,19.10
2022-07-27T06:27:21.034Z,19.40
2022-07-27T06:27:56.203Z,19.05
2022-07-27T06:28:30.133Z,18.05
2022-07-27T06:29:10.834Z,18.92
2022-07-27T06:29:45.682Z,18.60
2022-07-27T06:30:23.773Z,37.92
2022-07-27T06:30:58.385Z,19.48
2022-07-27T06:31:35.570Z,18.63
2022-07-27T06:32:10.708Z,18.65
2022-07-27T06:32:45.516Z,18.92
2022-07-27T06:33:29.027Z,18.25
2022-07-27T06:34:04.173Z,19.05
2022-07-27T06:34:46.382Z,18.88
2022-07-27T06:35:23.666Z,18.70
2022-07-27T06:35:59.454Z,18.90
2022-07-27T06:36:34.396Z,18.77
2022-07-27T06:37:09.588Z,18.60
2022-07-27T06:37:44.802Z,19.95
2022-07-27T06:38:19.936Z,17.58
2022-07-27T06:38:55.115Z,17.80
2022-07-27T06:39:30.522Z,18.45
2022-07-27T06:40:06.352Z,18.15
2022-07-27T06:40:42.023Z,18.88
2022-07-27T06:41:15.690Z,18.85
2022-07-27T06:41:56.168Z,18.70
2022-07-27T06:42:32.620Z,18.55
2022-07-27T06:43:08.060Z,17.60
2022-07-27T06:43:42.579Z,19.25
2022-07-27T06:44:17.299Z,19.55
2022-07-27T06:44:52.224Z,20.00
2022-07-27T06:45:26.584Z,18.75
2022-07-27T06:46:01.113Z,16.83
2022-07-27T06:46:36.586Z,17.20
2022-07-27T06:47:11.725Z,18.60
2022-07-27T06:47:49.022Z,18.10
2022-07-27T06:48:25.331Z,18.00
2022-07-27T06:49:00.101Z,18.35
2022-07-27T06:49:34.582Z,17.90
2022-07-27T06:50:09.085Z,18.13
2022-07-27T06:50:44.948Z,19.35
2022-07-27T06:51:18.131Z,18.85
2022-07-27T06:51:54.222Z,17.17
2022-07-27T06:52:28.149Z,18.48
2022-07-27T06:53:04.687Z,18.48
2022-07-27T06:53:39.281Z,17.98
2022-07-27T06:54:15.272Z,18.05
2022-07-27T06:54:50.711Z,18.13
2022-07-27T06:55:26.054Z,17.80
2022-07-27T06:56:04.867Z,17.42
2022-07-27T06:56:38.371Z,17.55
2022-07-27T06:57:14.964Z,17.75
2022-07-27T06:57:50.471Z,16.85
2022-07-27T06:58:25.911Z,17.60
2022-07-27T06:59:00.939Z,17.67
2022-07-27T06:59:42.697Z,17.85
2022-07-27T07:00:19.560Z,17.45
2022-07-27T07:00:53.942Z,16.65
2022-07-27T07:01:28.777Z,17.75
2022-07-27T07:02:03.373Z,18.60
2022-07-27T07:02:38.244Z,49.47
2022-07-27T07:03:13.451Z,28.60
2022-07-27T07:03:47.381Z,19.88
2022-07-27T07:04:25.188Z,19.40
2022-07-27T07:04:59.355Z,17.25
2022-07-27T07:05:38.537Z,17.92
2022-07-27T07:06:12.783Z,17.42
2022-07-27T07:06:46.224Z,18.00
2022-07-27T07:07:21.909Z,17.77
2022-07-27T07:07:56.071Z,17.67
2022-07-27T07:08:30.201Z,17.48
2022-07-27T07:09:05.466Z,17.23
2022-07-27T07:09:42.992Z,17.55
2022-07-27T07:10:18.393Z,18.52
2022-07-27T07:10:53.726Z,16.67
2022-07-27T07:11:28.102Z,16.67
2022-07-27T07:12:03.405Z,17.42
2022-07-27T07:12:39.265Z,17.08
2022-07-27T07:13:14.803Z,18.35
2022-07-27T07:13:48.469Z,16.45
2022-07-27T07:14:24.593Z,16.55
2022-07-27T07:14:58.775Z,16.95
2022-07-27T07:15:35.549Z,15.68
2022-07-27T07:16:09.903Z,15.25
2022-07-27T07:16:45.931Z,15.85
2022-07-27T07:17:19.991Z,16.40
2022-07-27T07:17:53.815Z,16.10
2022-07-27T07:18:28.893Z,16.00
2022-07-27T07:19:04.110Z,16.60
2022-07-27T07:19:38.065Z,16.92
2022-07-27T07:20:13.694Z,16.65
2022-07-27T07:20:47.629Z,16.33
2022-07-27T07:21:22.765Z,16.88
2022-07-27T07:21:57.046Z,17.05
2022-07-27T07:22:31.262Z,16.70
2022-07-27T07:23:07.701Z,17.17
2022-07-27T07:23:42.429Z,16.52
2022-07-27T07:24:17.881Z,17.23
2022-07-27T07:24:52.653Z,15.77
2022-07-27T07:25:27.049Z,17.02
2022-07-27T07:26:02.207Z,16.55
2022-07-27T07:26:38.583Z,17.48
2022-07-27T07:27:11.772Z,16.65
2022-07-27T07:27:48.248Z,16.75
2022-07-27T07:28:22.638Z,17.92
2022-07-27T07:28:59.029Z,16.48
2022-07-27T07:29:33.499Z,17.23
2022-07-27T07:30:08.626Z,17.35
2022-07-27T07:30:43.620Z,16.98
2022-07-27T07:31:21.019Z,17.58
2022-07-27T07:31:56.389Z,17.73
2022-07-27T07:32:33.602Z,18.10
2022-07-27T07:33:09.236Z,18.42
2022-07-27T07:33:44.116Z,17.55
2022-07-27T07:34:18.708Z,18.05
2022-07-27T07:34:54.043Z,17.23
2022-07-27T07:35:29.439Z,18.23
2022-07-27T07:36:13.369Z,17.45
2022-07-27T07:36:49.909Z,18.30
2022-07-27T07:37:24.672Z,17.35